sensor_id;sensor_type;location;lat;lon;timestamp;P1;durP1;ratioP1;P2;durP2;ratioP2
20458;SDS011;10388;52.314;7.938;2023-07-28T00:02:07;6.47;;;3.97;;
20458;SDS011;10388;52.314;7.938;2023-07-28T00:04:38;4.77;;;3.87;;
20458;SDS011;10388;52.314;7.938;2023-07-28T00:07:08;4.50;;;3.90;;
20458;SDS011;10388;52.314;7.938;2023-07-28T00:09:39;4.90;;;3.90;;
20458;SDS011;10388;52.314;7.938;2023-07-28T00:12:09;5.13;;;3.90;;
20458;SDS011;10388;52.314;7.938;2023-07-28T00:14:46;4.00;;;3.40;;
20458;SDS011;10388;52.314;7.938;2023-07-28T00:17:16;6.83;;;4.17;;
20458;SDS011;10388;52.314;7.938;2023-07-28T00:19:47;4.63;;;3.47;;
20458;SDS011;10388;52.314;7.938;2023-07-28T00:22:18;4.97;;;4.00;;
20458;SDS011;10388;52.314;7.938;2023-07-28T00:24:48;4.83;;;3.80;;
20458;SDS011;10388;52.314;7.938;2023-07-28T00:36:32;4.00;;;3.57;;
20458;SDS011;10388;52.314;7.938;2023-07-28T00:39:15;4.83;;;3.00;;
20458;SDS011;10388;52.314;7.938;2023-07-28T00:42:26;4.43;;;3.37;;
20458;SDS011;10388;52.314;7.938;2023-07-28T00:48:14;4.67;;;3.83;;
20458;SDS011;10388;52.314;7.938;2023-07-28T00:51:07;6.37;;;3.67;;
20458;SDS011;10388;52.314;7.938;2023-07-28T00:54:33;4.33;;;3.70;;
20458;SDS011;10388;52.314;7.938;2023-07-28T00:57:27;4.40;;;3.40;;
20458;SDS011;10388;52.314;7.938;2023-07-28T01:00:19;4.00;;;3.60;;
20458;SDS011;10388;52.314;7.938;2023-07-28T01:03:52;6.83;;;3.80;;
20458;SDS011;10388;52.314;7.938;2023-07-28T01:06:33;4.93;;;4.13;;
20458;SDS011;10388;52.314;7.938;2023-07-28T01:09:29;5.87;;;3.93;;
20458;SDS011;10388;52.314;7.938;2023-07-28T01:12:18;5.07;;;4.30;;
20458;SDS011;10388;52.314;7.938;2023-07-28T01:18:42;5.13;;;4.20;;
20458;SDS011;10388;52.314;7.938;2023-07-28T01:27:37;5.87;;;4.43;;
20458;SDS011;10388;52.314;7.938;2023-07-28T01:30:20;6.67;;;4.27;;
20458;SDS011;10388;52.314;7.938;2023-07-28T01:33:22;4.47;;;3.77;;
20458;SDS011;10388;52.314;7.938;2023-07-28T01:39:26;4.90;;;4.40;;
20458;SDS011;10388;52.314;7.938;2023-07-28T01:42:28;5.70;;;4.60;;
20458;SDS011;10388;52.314;7.938;2023-07-28T01:44:59;5.60;;;4.87;;
20458;SDS011;10388;52.314;7.938;2023-07-28T01:48:01;6.00;;;4.37;;
20458;SDS011;10388;52.314;7.938;2023-07-28T01:51:01;6.07;;;4.40;;
20458;SDS011;10388;52.314;7.938;2023-07-28T01:54:12;5.53;;;4.43;;
20458;SDS011;10388;52.314;7.938;2023-07-28T01:57:13;6.17;;;4.53;;
20458;SDS011;10388;52.314;7.938;2023-07-28T02:00:10;5.77;;;4.60;;
20458;SDS011;10388;52.314;7.938;2023-07-28T02:02:49;6.73;;;4.70;;
20458;SDS011;10388;52.314;7.938;2023-07-28T02:05:48;5.50;;;4.73;;
20458;SDS011;10388;52.314;7.938;2023-07-28T02:11:43;5.03;;;4.53;;
20458;SDS011;10388;52.314;7.938;2023-07-28T02:14:45;5.60;;;4.70;;
20458;SDS011;10388;52.314;7.938;2023-07-28T02:24:25;8.13;;;5.13;;
20458;SDS011;10388;52.314;7.938;2023-07-28T02:27:40;6.43;;;5.60;;
20458;SDS011;10388;52.314;7.938;2023-07-28T02:30:22;8.60;;;5.67;;
20458;SDS011;10388;52.314;7.938;2023-07-28T02:33:08;7.63;;;5.30;;
20458;SDS011;10388;52.314;7.938;2023-07-28T02:36:14;6.30;;;5.40;;
20458;SDS011;10388;52.314;7.938;2023-07-28T02:38:56;7.53;;;5.90;;
20458;SDS011;10388;52.314;7.938;2023-07-28T02:41:53;8.97;;;5.67;;
20458;SDS011;10388;52.314;7.938;2023-07-28T02:45:08;6.87;;;5.83;;
20458;SDS011;10388;52.314;7.938;2023-07-28T02:48:20;8.00;;;6.23;;
20458;SDS011;10388;52.314;7.938;2023-07-28T02:51:21;8.30;;;5.90;;
20458;SDS011;10388;52.314;7.938;2023-07-28T03:03:51;7.67;;;6.60;;
20458;SDS011;10388;52.314;7.938;2023-07-28T03:06:36;8.53;;;6.13;;
20458;SDS011;10388;52.314;7.938;2023-07-28T03:09:51;8.33;;;6.63;;
20458;SDS011;10388;52.314;7.938;2023-07-28T03:12:55;8.37;;;6.40;;
20458;SDS011;10388;52.314;7.938;2023-07-28T03:16:19;8.87;;;6.43;;
20458;SDS011;10388;52.314;7.938;2023-07-28T03:19:26;7.07;;;5.80;;
20458;SDS011;10388;52.314;7.938;2023-07-28T03:25:19;7.80;;;6.00;;
20458;SDS011;10388;52.314;7.938;2023-07-28T03:28:27;8.83;;;6.37;;
20458;SDS011;10388;52.314;7.938;2023-07-28T03:44:15;8.30;;;5.83;;
20458;SDS011;10388;52.314;7.938;2023-07-28T03:47:32;12.50;;;5.90;;
20458;SDS011;10388;52.314;7.938;2023-07-28T03:50:30;7.67;;;5.20;;
20458;SDS011;10388;52.314;7.938;2023-07-28T03:53:09;8.20;;;5.57;;
20458;SDS011;10388;52.314;7.938;2023-07-28T03:56:00;7.77;;;5.60;;
20458;SDS011;10388;52.314;7.938;2023-07-28T03:58:31;6.57;;;5.53;;
20458;SDS011;10388;52.314;7.938;2023-07-28T04:01:02;6.17;;;5.00;;
20458;SDS011;10388;52.314;7.938;2023-07-28T04:03:32;8.97;;;6.00;;
20458;SDS011;10388;52.314;7.938;2023-07-28T04:06:09;7.97;;;5.73;;
20458;SDS011;10388;52.314;7.938;2023-07-28T04:08:41;7.20;;;5.33;;
20458;SDS011;10388;52.314;7.938;2023-07-28T04:11:11;7.53;;;5.43;;
20458;SDS011;10388;52.314;7.938;2023-07-28T04:13:42;6.30;;;5.50;;
20458;SDS011;10388;52.314;7.938;2023-07-28T04:16:12;8.43;;;5.43;;
20458;SDS011;10388;52.314;7.938;2023-07-28T04:18:43;7.77;;;5.50;;
20458;SDS011;10388;52.314;7.938;2023-07-28T04:21:13;8.30;;;5.27;;
20458;SDS011;10388;52.314;7.938;2023-07-28T04:23:44;7.27;;;5.87;;
20458;SDS011;10388;52.314;7.938;2023-07-28T04:26:15;6.53;;;5.33;;
20458;SDS011;10388;52.314;7.938;2023-07-28T04:28:46;6.47;;;5.70;;
20458;SDS011;10388;52.314;7.938;2023-07-28T04:31:17;5.93;;;5.03;;
20458;SDS011;10388;52.314;7.938;2023-07-28T04:33:47;7.30;;;5.43;;
20458;SDS011;10388;52.314;7.938;2023-07-28T04:36:18;5.73;;;5.13;;
20458;SDS011;10388;52.314;7.938;2023-07-28T04:38:48;5.83;;;5.00;;
20458;SDS011;10388;52.314;7.938;2023-07-28T04:41:19;8.03;;;6.17;;
20458;SDS011;10388;52.314;7.938;2023-07-28T04:43:49;7.13;;;5.57;;
20458;SDS011;10388;52.314;7.938;2023-07-28T04:46:20;8.10;;;5.50;;
20458;SDS011;10388;52.314;7.938;2023-07-28T04:48:51;8.03;;;6.00;;
20458;SDS011;10388;52.314;7.938;2023-07-28T04:51:21;8.90;;;6.00;;
20458;SDS011;10388;52.314;7.938;2023-07-28T04:53:52;8.70;;;6.03;;
20458;SDS011;10388;52.314;7.938;2023-07-28T04:56:22;6.77;;;5.90;;
20458;SDS011;10388;52.314;7.938;2023-07-28T04:58:53;6.80;;;5.70;;
20458;SDS011;10388;52.314;7.938;2023-07-28T05:01:23;9.97;;;6.53;;
20458;SDS011;10388;52.314;7.938;2023-07-28T05:03:54;7.93;;;6.27;;
20458;SDS011;10388;52.314;7.938;2023-07-28T05:06:24;6.77;;;6.07;;
20458;SDS011;10388;52.314;7.938;2023-07-28T05:08:55;9.07;;;6.70;;
20458;SDS011;10388;52.314;7.938;2023-07-28T05:11:25;8.30;;;6.40;;
20458;SDS011;10388;52.314;7.938;2023-07-28T05:13:56;8.83;;;6.30;;
20458;SDS011;10388;52.314;7.938;2023-07-28T05:16:26;7.03;;;6.33;;
20458;SDS011;10388;52.314;7.938;2023-07-28T05:18:57;8.63;;;6.23;;
20458;SDS011;10388;52.314;7.938;2023-07-28T05:21:27;7.70;;;6.40;;
20458;SDS011;10388;52.314;7.938;2023-07-28T05:23:58;7.23;;;6.17;;
20458;SDS011;10388;52.314;7.938;2023-07-28T05:26:29;7.20;;;6.07;;
20458;SDS011;10388;52.314;7.938;2023-07-28T05:28:59;7.30;;;6.50;;
20458;SDS011;10388;52.314;7.938;2023-07-28T05:31:30;7.60;;;6.60;;
20458;SDS011;10388;52.314;7.938;2023-07-28T05:34:01;7.10;;;6.40;;
20458;SDS011;10388;52.314;7.938;2023-07-28T05:36:31;7.67;;;6.47;;
20458;SDS011;10388;52.314;7.938;2023-07-28T05:39:02;6.80;;;6.07;;
20458;SDS011;10388;52.314;7.938;2023-07-28T05:41:32;7.30;;;6.30;;
20458;SDS011;10388;52.314;7.938;2023-07-28T05:44:03;7.20;;;5.97;;
20458;SDS011;10388;52.314;7.938;2023-07-28T05:46:34;6.67;;;5.97;;
20458;SDS011;10388;52.314;7.938;2023-07-28T05:49:04;6.60;;;5.80;;
20458;SDS011;10388;52.314;7.938;2023-07-28T05:51:35;8.50;;;5.27;;
20458;SDS011;10388;52.314;7.938;2023-07-28T05:54:05;7.83;;;5.37;;
20458;SDS011;10388;52.314;7.938;2023-07-28T05:56:36;6.63;;;5.53;;
20458;SDS011;10388;52.314;7.938;2023-07-28T05:59:07;5.37;;;4.87;;
20458;SDS011;10388;52.314;7.938;2023-07-28T06:01:37;5.60;;;5.00;;
20458;SDS011;10388;52.314;7.938;2023-07-28T06:04:08;5.83;;;5.23;;
20458;SDS011;10388;52.314;7.938;2023-07-28T06:06:38;7.33;;;5.17;;
20458;SDS011;10388;52.314;7.938;2023-07-28T06:09:09;5.53;;;4.93;;
20458;SDS011;10388;52.314;7.938;2023-07-28T06:11:39;6.07;;;5.47;;
20458;SDS011;10388;52.314;7.938;2023-07-28T06:14:10;5.73;;;4.67;;
20458;SDS011;10388;52.314;7.938;2023-07-28T06:16:40;7.13;;;5.67;;
20458;SDS011;10388;52.314;7.938;2023-07-28T06:19:11;6.17;;;5.00;;
20458;SDS011;10388;52.314;7.938;2023-07-28T06:21:41;5.83;;;5.23;;
20458;SDS011;10388;52.314;7.938;2023-07-28T06:24:12;5.97;;;5.23;;
20458;SDS011;10388;52.314;7.938;2023-07-28T06:26:42;7.57;;;5.60;;
20458;SDS011;10388;52.314;7.938;2023-07-28T06:29:13;9.33;;;5.50;;
20458;SDS011;10388;52.314;7.938;2023-07-28T06:31:43;7.03;;;5.23;;
20458;SDS011;10388;52.314;7.938;2023-07-28T06:34:14;5.27;;;4.77;;
20458;SDS011;10388;52.314;7.938;2023-07-28T06:36:44;6.50;;;4.80;;
20458;SDS011;10388;52.314;7.938;2023-07-28T06:39:15;4.87;;;4.37;;
20458;SDS011;10388;52.314;7.938;2023-07-28T06:41:45;5.00;;;4.50;;
20458;SDS011;10388;52.314;7.938;2023-07-28T06:44:16;5.90;;;4.30;;
20458;SDS011;10388;52.314;7.938;2023-07-28T06:46:47;4.23;;;3.67;;
20458;SDS011;10388;52.314;7.938;2023-07-28T06:49:18;4.77;;;3.27;;
20458;SDS011;10388;52.314;7.938;2023-07-28T06:51:48;4.43;;;3.97;;
20458;SDS011;10388;52.314;7.938;2023-07-28T06:54:19;4.80;;;3.73;;
20458;SDS011;10388;52.314;7.938;2023-07-28T06:56:50;4.50;;;3.43;;
20458;SDS011;10388;52.314;7.938;2023-07-28T06:59:20;3.43;;;3.13;;
20458;SDS011;10388;52.314;7.938;2023-07-28T07:01:51;4.37;;;3.30;;
20458;SDS011;10388;52.314;7.938;2023-07-28T07:04:21;4.93;;;2.93;;
20458;SDS011;10388;52.314;7.938;2023-07-28T07:06:52;3.83;;;3.20;;
20458;SDS011;10388;52.314;7.938;2023-07-28T07:09:22;3.33;;;3.03;;
20458;SDS011;10388;52.314;7.938;2023-07-28T07:11:53;3.13;;;2.83;;
20458;SDS011;10388;52.314;7.938;2023-07-28T07:14:24;3.17;;;2.87;;
20458;SDS011;10388;52.314;7.938;2023-07-28T07:16:55;3.73;;;2.93;;
20458;SDS011;10388;52.314;7.938;2023-07-28T07:19:27;2.80;;;2.50;;
20458;SDS011;10388;52.314;7.938;2023-07-28T07:21:58;2.80;;;2.53;;
20458;SDS011;10388;52.314;7.938;2023-07-28T07:24:28;3.70;;;2.80;;
20458;SDS011;10388;52.314;7.938;2023-07-28T07:26:59;3.17;;;2.77;;
20458;SDS011;10388;52.314;7.938;2023-07-28T07:29:29;3.37;;;2.60;;
20458;SDS011;10388;52.314;7.938;2023-07-28T07:32:00;2.67;;;2.37;;
20458;SDS011;10388;52.314;7.938;2023-07-28T07:34:30;3.17;;;2.60;;
20458;SDS011;10388;52.314;7.938;2023-07-28T07:37:03;2.90;;;2.57;;
20458;SDS011;10388;52.314;7.938;2023-07-28T07:39:34;3.67;;;2.60;;
20458;SDS011;10388;52.314;7.938;2023-07-28T07:42:06;3.57;;;2.60;;
20458;SDS011;10388;52.314;7.938;2023-07-28T07:44:37;2.60;;;2.40;;
20458;SDS011;10388;52.314;7.938;2023-07-28T07:47:14;3.50;;;2.70;;
20458;SDS011;10388;52.314;7.938;2023-07-28T07:49:45;3.00;;;2.70;;
20458;SDS011;10388;52.314;7.938;2023-07-28T07:52:15;3.03;;;2.73;;
20458;SDS011;10388;52.314;7.938;2023-07-28T07:54:46;2.87;;;2.60;;
20458;SDS011;10388;52.314;7.938;2023-07-28T07:57:16;3.17;;;2.60;;
20458;SDS011;10388;52.314;7.938;2023-07-28T07:59:47;3.40;;;2.70;;
20458;SDS011;10388;52.314;7.938;2023-07-28T08:02:18;3.33;;;2.73;;
20458;SDS011;10388;52.314;7.938;2023-07-28T08:04:48;3.30;;;3.00;;
20458;SDS011;10388;52.314;7.938;2023-07-28T08:07:20;3.63;;;3.07;;
20458;SDS011;10388;52.314;7.938;2023-07-28T08:09:50;6.53;;;3.40;;
20458;SDS011;10388;52.314;7.938;2023-07-28T08:12:21;2.87;;;2.67;;
20458;SDS011;10388;52.314;7.938;2023-07-28T08:14:51;3.77;;;2.67;;
20458;SDS011;10388;52.314;7.938;2023-07-28T08:17:22;3.03;;;2.73;;
20458;SDS011;10388;52.314;7.938;2023-07-28T08:19:52;3.07;;;2.77;;
20458;SDS011;10388;52.314;7.938;2023-07-28T08:22:23;3.33;;;3.03;;
20458;SDS011;10388;52.314;7.938;2023-07-28T08:24:55;3.73;;;2.90;;
20458;SDS011;10388;52.314;7.938;2023-07-28T08:27:25;3.37;;;2.60;;
20458;SDS011;10388;52.314;7.938;2023-07-28T08:29:56;3.13;;;2.83;;
20458;SDS011;10388;52.314;7.938;2023-07-28T08:32:27;6.73;;;2.87;;
20458;SDS011;10388;52.314;7.938;2023-07-28T08:34:57;8.90;;;3.77;;
20458;SDS011;10388;52.314;7.938;2023-07-28T08:37:28;7.37;;;3.73;;
20458;SDS011;10388;52.314;7.938;2023-07-28T08:39:59;8.63;;;3.93;;
20458;SDS011;10388;52.314;7.938;2023-07-28T08:42:30;7.87;;;4.03;;
20458;SDS011;10388;52.314;7.938;2023-07-28T08:45:02;8.43;;;4.00;;
20458;SDS011;10388;52.314;7.938;2023-07-28T08:47:35;10.40;;;4.37;;
20458;SDS011;10388;52.314;7.938;2023-07-28T08:50:07;10.73;;;4.80;;
20458;SDS011;10388;52.314;7.938;2023-07-28T08:52:38;7.63;;;3.60;;
20458;SDS011;10388;52.314;7.938;2023-07-28T08:55:08;8.97;;;3.23;;
20458;SDS011;10388;52.314;7.938;2023-07-28T08:57:39;9.33;;;4.10;;
20458;SDS011;10388;52.314;7.938;2023-07-28T09:00:10;6.03;;;3.47;;
20458;SDS011;10388;52.314;7.938;2023-07-28T09:02:43;7.80;;;4.13;;
20458;SDS011;10388;52.314;7.938;2023-07-28T09:05:20;8.70;;;3.63;;
20458;SDS011;10388;52.314;7.938;2023-07-28T09:07:53;8.80;;;3.90;;
20458;SDS011;10388;52.314;7.938;2023-07-28T09:10:24;7.67;;;3.70;;
20458;SDS011;10388;52.314;7.938;2023-07-28T09:12:55;3.30;;;3.00;;
20458;SDS011;10388;52.314;7.938;2023-07-28T09:15:25;3.90;;;2.90;;
20458;SDS011;10388;52.314;7.938;2023-07-28T09:17:56;4.87;;;2.57;;
20458;SDS011;10388;52.314;7.938;2023-07-28T09:20:34;2.13;;;1.97;;
20458;SDS011;10388;52.314;7.938;2023-07-28T09:23:05;2.77;;;2.33;;
20458;SDS011;10388;52.314;7.938;2023-07-28T09:25:37;3.83;;;2.80;;
20458;SDS011;10388;52.314;7.938;2023-07-28T09:28:08;2.17;;;1.97;;
20458;SDS011;10388;52.314;7.938;2023-07-28T09:30:46;2.97;;;2.53;;
20458;SDS011;10388;52.314;7.938;2023-07-28T09:33:29;4.27;;;2.10;;
20458;SDS011;10388;52.314;7.938;2023-07-28T09:36:07;4.00;;;2.10;;
20458;SDS011;10388;52.314;7.938;2023-07-28T09:38:40;2.83;;;2.57;;
20458;SDS011;10388;52.314;7.938;2023-07-28T09:41:11;3.17;;;2.13;;
20458;SDS011;10388;52.314;7.938;2023-07-28T09:43:42;2.60;;;2.40;;
20458;SDS011;10388;52.314;7.938;2023-07-28T09:46:14;2.60;;;2.40;;
20458;SDS011;10388;52.314;7.938;2023-07-28T09:48:48;2.40;;;2.20;;
20458;SDS011;10388;52.314;7.938;2023-07-28T09:51:27;2.37;;;2.17;;
20458;SDS011;10388;52.314;7.938;2023-07-28T09:54:05;3.60;;;2.30;;
20458;SDS011;10388;52.314;7.938;2023-07-28T09:56:41;5.30;;;2.50;;
20458;SDS011;10388;52.314;7.938;2023-07-28T09:59:16;3.57;;;2.37;;
20458;SDS011;10388;52.314;7.938;2023-07-28T10:01:47;2.60;;;2.40;;
20458;SDS011;10388;52.314;7.938;2023-07-28T10:04:18;2.77;;;2.57;;
20458;SDS011;10388;52.314;7.938;2023-07-28T10:06:51;2.80;;;2.50;;
20458;SDS011;10388;52.314;7.938;2023-07-28T10:09:26;2.80;;;2.50;;
20458;SDS011;10388;52.314;7.938;2023-07-28T10:11:58;2.50;;;2.23;;
20458;SDS011;10388;52.314;7.938;2023-07-28T10:14:30;2.53;;;2.33;;
20458;SDS011;10388;52.314;7.938;2023-07-28T10:17:05;2.93;;;2.73;;
20458;SDS011;10388;52.314;7.938;2023-07-28T10:19:36;3.77;;;2.80;;
20458;SDS011;10388;52.314;7.938;2023-07-28T10:22:10;6.07;;;2.60;;
20458;SDS011;10388;52.314;7.938;2023-07-28T10:24:54;3.10;;;2.80;;
20458;SDS011;10388;52.314;7.938;2023-07-28T10:27:30;4.17;;;3.00;;
20458;SDS011;10388;52.314;7.938;2023-07-28T10:30:04;3.00;;;2.63;;
20458;SDS011;10388;52.314;7.938;2023-07-28T10:32:44;5.07;;;2.93;;
20458;SDS011;10388;52.314;7.938;2023-07-28T10:37:49;4.40;;;3.80;;
20458;SDS011;10388;52.314;7.938;2023-07-28T10:43:04;4.17;;;3.70;;
20458;SDS011;10388;52.314;7.938;2023-07-28T10:45:35;3.63;;;3.27;;
20458;SDS011;10388;52.314;7.938;2023-07-28T10:48:05;4.17;;;3.40;;
20458;SDS011;10388;52.314;7.938;2023-07-28T10:50:37;3.87;;;3.57;;
20458;SDS011;10388;52.314;7.938;2023-07-28T10:53:08;4.63;;;3.60;;
20458;SDS011;10388;52.314;7.938;2023-07-28T10:55:40;4.07;;;3.70;;
20458;SDS011;10388;52.314;7.938;2023-07-28T10:58:11;4.47;;;3.90;;
20458;SDS011;10388;52.314;7.938;2023-07-28T11:00:42;4.30;;;3.90;;
20458;SDS011;10388;52.314;7.938;2023-07-28T11:03:12;4.43;;;4.03;;
20458;SDS011;10388;52.314;7.938;2023-07-28T11:05:43;4.37;;;3.67;;
20458;SDS011;10388;52.314;7.938;2023-07-28T11:08:14;5.93;;;4.13;;
20458;SDS011;10388;52.314;7.938;2023-07-28T11:10:44;5.93;;;4.30;;
20458;SDS011;10388;52.314;7.938;2023-07-28T11:13:15;5.30;;;4.07;;
20458;SDS011;10388;52.314;7.938;2023-07-28T11:15:46;4.90;;;4.40;;
20458;SDS011;10388;52.314;7.938;2023-07-28T11:18:16;5.87;;;4.20;;
20458;SDS011;10388;52.314;7.938;2023-07-28T11:20:47;6.67;;;4.97;;
20458;SDS011;10388;52.314;7.938;2023-07-28T11:23:17;5.53;;;5.00;;
20458;SDS011;10388;52.314;7.938;2023-07-28T11:25:48;7.73;;;4.60;;
20458;SDS011;10388;52.314;7.938;2023-07-28T11:28:20;5.63;;;5.13;;
20458;SDS011;10388;52.314;7.938;2023-07-28T11:30:51;5.33;;;4.83;;
20458;SDS011;10388;52.314;7.938;2023-07-28T11:33:23;6.43;;;5.83;;
20458;SDS011;10388;52.314;7.938;2023-07-28T11:35:54;6.17;;;5.57;;
20458;SDS011;10388;52.314;7.938;2023-07-28T11:38:24;6.67;;;5.70;;
20458;SDS011;10388;52.314;7.938;2023-07-28T11:40:56;8.70;;;5.60;;
20458;SDS011;10388;52.314;7.938;2023-07-28T11:43:27;9.07;;;6.37;;
20458;SDS011;10388;52.314;7.938;2023-07-28T11:45:58;8.03;;;5.90;;
20458;SDS011;10388;52.314;7.938;2023-07-28T11:48:29;7.80;;;7.00;;
20458;SDS011;10388;52.314;7.938;2023-07-28T11:51:02;7.20;;;6.50;;
20458;SDS011;10388;52.314;7.938;2023-07-28T11:53:33;8.03;;;7.23;;
20458;SDS011;10388;52.314;7.938;2023-07-28T11:56:04;7.53;;;6.77;;
20458;SDS011;10388;52.314;7.938;2023-07-28T11:58:34;6.87;;;6.27;;
20458;SDS011;10388;52.314;7.938;2023-07-28T12:01:07;7.70;;;6.90;;
20458;SDS011;10388;52.314;7.938;2023-07-28T12:03:38;7.43;;;6.63;;
20458;SDS011;10388;52.314;7.938;2023-07-28T12:06:09;6.87;;;6.27;;
20458;SDS011;10388;52.314;7.938;2023-07-28T12:08:40;6.40;;;5.80;;
20458;SDS011;10388;52.314;7.938;2023-07-28T12:11:14;8.20;;;6.37;;
20458;SDS011;10388;52.314;7.938;2023-07-28T12:13:48;9.57;;;5.93;;
20458;SDS011;10388;52.314;7.938;2023-07-28T12:16:34;7.07;;;5.20;;
20458;SDS011;10388;52.314;7.938;2023-07-28T12:19:08;6.13;;;5.37;;
20458;SDS011;10388;52.314;7.938;2023-07-28T12:21:39;5.63;;;5.13;;
20458;SDS011;10388;52.314;7.938;2023-07-28T12:24:09;5.40;;;4.90;;
20458;SDS011;10388;52.314;7.938;2023-07-28T12:26:40;6.40;;;5.30;;
20458;SDS011;10388;52.314;7.938;2023-07-28T12:29:10;6.67;;;4.77;;
20458;SDS011;10388;52.314;7.938;2023-07-28T12:31:41;5.30;;;4.80;;
20458;SDS011;10388;52.314;7.938;2023-07-28T12:34:12;5.53;;;5.00;;
20458;SDS011;10388;52.314;7.938;2023-07-28T12:36:43;5.23;;;4.77;;
20458;SDS011;10388;52.314;7.938;2023-07-28T12:39:14;5.60;;;5.10;;
20458;SDS011;10388;52.314;7.938;2023-07-28T12:41:45;5.13;;;4.63;;
20458;SDS011;10388;52.314;7.938;2023-07-28T12:44:21;5.90;;;4.23;;
20458;SDS011;10388;52.314;7.938;2023-07-28T12:46:52;5.47;;;4.00;;
20458;SDS011;10388;52.314;7.938;2023-07-28T12:49:23;4.57;;;4.17;;
20458;SDS011;10388;52.314;7.938;2023-07-28T12:51:53;5.40;;;4.10;;
20458;SDS011;10388;52.314;7.938;2023-07-28T12:54:26;5.30;;;4.17;;
20458;SDS011;10388;52.314;7.938;2023-07-28T12:56:57;3.70;;;3.40;;
20458;SDS011;10388;52.314;7.938;2023-07-28T12:59:27;4.93;;;3.87;;
20458;SDS011;10388;52.314;7.938;2023-07-28T13:01:59;4.00;;;3.70;;
20458;SDS011;10388;52.314;7.938;2023-07-28T13:04:30;4.67;;;4.27;;
20458;SDS011;10388;52.314;7.938;2023-07-28T13:07:00;5.03;;;4.07;;
20458;SDS011;10388;52.314;7.938;2023-07-28T13:09:31;4.67;;;3.70;;
20458;SDS011;10388;52.314;7.938;2023-07-28T13:12:02;4.13;;;3.73;;
20458;SDS011;10388;52.314;7.938;2023-07-28T13:14:33;3.87;;;3.57;;
20458;SDS011;10388;52.314;7.938;2023-07-28T13:17:04;4.70;;;3.20;;
20458;SDS011;10388;52.314;7.938;2023-07-28T13:19:34;3.20;;;2.90;;
20458;SDS011;10388;52.314;7.938;2023-07-28T13:22:05;3.83;;;3.37;;
20458;SDS011;10388;52.314;7.938;2023-07-28T13:24:36;3.60;;;3.20;;
20458;SDS011;10388;52.314;7.938;2023-07-28T13:27:08;3.10;;;2.80;;
20458;SDS011;10388;52.314;7.938;2023-07-28T13:29:38;3.30;;;3.00;;
20458;SDS011;10388;52.314;7.938;2023-07-28T13:32:16;3.33;;;3.03;;
20458;SDS011;10388;52.314;7.938;2023-07-28T13:34:48;3.00;;;2.40;;
20458;SDS011;10388;52.314;7.938;2023-07-28T13:37:19;4.70;;;2.90;;
20458;SDS011;10388;52.314;7.938;2023-07-28T13:39:49;3.07;;;2.77;;
20458;SDS011;10388;52.314;7.938;2023-07-28T13:42:21;2.80;;;2.47;;
20458;SDS011;10388;52.314;7.938;2023-07-28T13:44:52;2.77;;;2.57;;
20458;SDS011;10388;52.314;7.938;2023-07-28T13:47:22;2.73;;;2.53;;
20458;SDS011;10388;52.314;7.938;2023-07-28T13:49:53;3.80;;;2.47;;
20458;SDS011;10388;52.314;7.938;2023-07-28T13:52:23;5.77;;;3.00;;
20458;SDS011;10388;52.314;7.938;2023-07-28T13:54:54;4.20;;;3.13;;
20458;SDS011;10388;52.314;7.938;2023-07-28T13:57:24;3.40;;;2.60;;
20458;SDS011;10388;52.314;7.938;2023-07-28T13:59:56;2.90;;;2.47;;
20458;SDS011;10388;52.314;7.938;2023-07-28T14:02:27;2.23;;;2.00;;
20458;SDS011;10388;52.314;7.938;2023-07-28T14:04:58;3.03;;;2.70;;
20458;SDS011;10388;52.314;7.938;2023-07-28T14:07:28;3.00;;;2.40;;
20458;SDS011;10388;52.314;7.938;2023-07-28T14:09:59;3.03;;;2.50;;
20458;SDS011;10388;52.314;7.938;2023-07-28T14:12:30;3.10;;;2.80;;
20458;SDS011;10388;52.314;7.938;2023-07-28T14:15:01;2.90;;;2.70;;
20458;SDS011;10388;52.314;7.938;2023-07-28T14:17:31;2.70;;;2.50;;
20458;SDS011;10388;52.314;7.938;2023-07-28T14:20:02;2.80;;;2.43;;
20458;SDS011;10388;52.314;7.938;2023-07-28T14:22:33;2.90;;;2.70;;
20458;SDS011;10388;52.314;7.938;2023-07-28T14:25:03;2.70;;;2.50;;
20458;SDS011;10388;52.314;7.938;2023-07-28T14:27:34;4.50;;;2.70;;
20458;SDS011;10388;52.314;7.938;2023-07-28T14:30:05;3.60;;;2.50;;
20458;SDS011;10388;52.314;7.938;2023-07-28T14:32:36;2.80;;;2.60;;
20458;SDS011;10388;52.314;7.938;2023-07-28T14:35:06;2.70;;;2.50;;
20458;SDS011;10388;52.314;7.938;2023-07-28T14:37:38;4.00;;;2.97;;
20458;SDS011;10388;52.314;7.938;2023-07-28T14:40:08;3.43;;;2.80;;
20458;SDS011;10388;52.314;7.938;2023-07-28T14:42:39;2.83;;;2.63;;
20458;SDS011;10388;52.314;7.938;2023-07-28T14:45:10;3.27;;;2.97;;
20458;SDS011;10388;52.314;7.938;2023-07-28T14:47:40;3.33;;;3.00;;
20458;SDS011;10388;52.314;7.938;2023-07-28T14:50:11;4.47;;;3.30;;
20458;SDS011;10388;52.314;7.938;2023-07-28T14:52:41;4.50;;;2.90;;
20458;SDS011;10388;52.314;7.938;2023-07-28T14:55:12;4.30;;;3.40;;
20458;SDS011;10388;52.314;7.938;2023-07-28T14:57:42;9.37;;;3.50;;
20458;SDS011;10388;52.314;7.938;2023-07-28T15:00:13;3.47;;;3.17;;
20458;SDS011;10388;52.314;7.938;2023-07-28T15:02:43;4.97;;;2.97;;
20458;SDS011;10388;52.314;7.938;2023-07-28T15:05:14;3.27;;;2.97;;
20458;SDS011;10388;52.314;7.938;2023-07-28T15:07:45;3.00;;;2.80;;
20458;SDS011;10388;52.314;7.938;2023-07-28T15:10:15;4.73;;;3.37;;
20458;SDS011;10388;52.314;7.938;2023-07-28T15:12:46;3.80;;;3.27;;
20458;SDS011;10388;52.314;7.938;2023-07-28T15:15:17;3.80;;;3.33;;
20458;SDS011;10388;52.314;7.938;2023-07-28T15:17:47;3.70;;;3.40;;
20458;SDS011;10388;52.314;7.938;2023-07-28T15:20:18;3.90;;;3.23;;
20458;SDS011;10388;52.314;7.938;2023-07-28T15:22:49;3.50;;;3.20;;
20458;SDS011;10388;52.314;7.938;2023-07-28T15:25:20;4.07;;;3.67;;
20458;SDS011;10388;52.314;7.938;2023-07-28T15:27:51;4.60;;;3.23;;
20458;SDS011;10388;52.314;7.938;2023-07-28T15:30:21;4.20;;;3.83;;
20458;SDS011;10388;52.314;7.938;2023-07-28T15:32:52;3.77;;;3.43;;
20458;SDS011;10388;52.314;7.938;2023-07-28T15:35:22;6.57;;;3.47;;
20458;SDS011;10388;52.314;7.938;2023-07-28T15:37:53;3.90;;;3.53;;
20458;SDS011;10388;52.314;7.938;2023-07-28T15:40:24;4.40;;;3.50;;
20458;SDS011;10388;52.314;7.938;2023-07-28T15:42:54;5.13;;;3.10;;
20458;SDS011;10388;52.314;7.938;2023-07-28T15:45:25;3.10;;;2.87;;
20458;SDS011;10388;52.314;7.938;2023-07-28T15:47:55;5.17;;;3.83;;
20458;SDS011;10388;52.314;7.938;2023-07-28T15:50:26;3.60;;;3.30;;
20458;SDS011;10388;52.314;7.938;2023-07-28T15:52:56;4.13;;;2.90;;
20458;SDS011;10388;52.314;7.938;2023-07-28T15:55:27;4.87;;;3.00;;
20458;SDS011;10388;52.314;7.938;2023-07-28T15:57:57;3.50;;;3.20;;
20458;SDS011;10388;52.314;7.938;2023-07-28T16:00:28;3.07;;;2.80;;
20458;SDS011;10388;52.314;7.938;2023-07-28T16:02:58;3.90;;;3.10;;
20458;SDS011;10388;52.314;7.938;2023-07-28T16:05:29;3.73;;;2.80;;
20458;SDS011;10388;52.314;7.938;2023-07-28T16:08:00;6.10;;;2.80;;
20458;SDS011;10388;52.314;7.938;2023-07-28T16:10:30;3.30;;;3.00;;
20458;SDS011;10388;52.314;7.938;2023-07-28T16:13:01;3.83;;;3.10;;
20458;SDS011;10388;52.314;7.938;2023-07-28T16:15:31;3.40;;;3.10;;
20458;SDS011;10388;52.314;7.938;2023-07-28T16:18:02;3.57;;;3.07;;
20458;SDS011;10388;52.314;7.938;2023-07-28T16:20:32;3.97;;;3.57;;
20458;SDS011;10388;52.314;7.938;2023-07-28T16:23:03;2.90;;;2.70;;
20458;SDS011;10388;52.314;7.938;2023-07-28T16:25:33;3.77;;;2.97;;
20458;SDS011;10388;52.314;7.938;2023-07-28T16:28:04;3.30;;;3.00;;
20458;SDS011;10388;52.314;7.938;2023-07-28T16:30:34;3.30;;;3.00;;
20458;SDS011;10388;52.314;7.938;2023-07-28T16:33:05;3.00;;;2.80;;
20458;SDS011;10388;52.314;7.938;2023-07-28T16:35:35;3.30;;;3.00;;
20458;SDS011;10388;52.314;7.938;2023-07-28T16:38:06;3.40;;;2.43;;
20458;SDS011;10388;52.314;7.938;2023-07-28T16:40:37;4.03;;;2.50;;